joomla templates top joomla templates template joomla

King Air Abend

Wetterbeurteilung mit Hilfe Webcam und ATIS

 

Webcam 1Webcam 2

(Zum vergrößern auf das Bild klicken)

Notam

C0503/18 - COBURG INFO CHANGED TO 128.680 (8.33 KHZ). 28 FEB 12:22 2018 UNTIL PERM. CREATED:
28 FEB 12:22 2018

C1109/18 - ATIS NOT AVBL. 24 APR 14:36 2018 UNTIL 24 JUL 23:59 2018 ESTIMATED. CREATED: 24 APR 14:43 2018

C0132/18 - DIRECTION FINDING STATION (VDF) COMPLETELY WITHDRAWN. 15 FEB 00:01 2018 UNTIL PERM. CREATED: 19 JAN 10:58 2018

Wetteranzeige

Aktuelles Platzwetter Stand 17.07.2018 04:08Z

AvgMinMax
Windrichtung330270330Deg
Windgeschwindigkeit102kt
Sichtweite>10000m
Temperatur15°C
Taupunkt12°C
Feuchte81%
QNH1014.8hPa
QFE961.4hPa
WolkenSKC

Aerodrome Terminal Information Service (ATIS) Coburg

METAR
EDQC 170350Z AUTO VRB01KT CAVOK 14/11 Q1014=

METAR und TAF der Umgebung

[Quelle: ADDS]
METAR
EDDF 170350Z 20002KT CAVOK 14/11 Q1013 NOSIG =
EDDN 170350Z VRB01KT 9999 MIFG NSC 13/12 Q1014 =
EDDE 170350Z 22008KT CAVOK 12/11 Q1013 NOSIG =
TAF
EDDF 162300Z 1700/1806 VRB03KT CAVOK TEMPO 1710/1718 30008KT =
EDDN 162300Z 1700/1724 VRB03KT CAVOK BECMG 1706/1708 28005KT BECMG 1710/1712 29010KT BECMG 1718/1720 29004KT =
EDDE 162300Z 1700/1724 23005KT CAVOK BECMG 1706/1708 29005KT BECMG 1710/1712 31010KT =

Wetterverlauf

Windvorhersage

Verkehrslandeplatz Coburg Brandensteinsebene
Tower
Zur Brandensteinsebene
96450 Coburg

 

Telefon +49 (0) 95 61 / 9 20 98
Telefax +49 (0) 95 61 / 9 20 06
EMail tower@vlp-coburg.de